createdAt,value
2023-04-16T00:00:22.750Z,29.26
2023-04-16T00:01:22.754Z,49.65
2023-04-16T00:02:22.897Z,44.47
2023-04-16T00:03:23.065Z,46.12
2023-04-16T00:04:22.847Z,55.85
2023-04-16T00:05:22.790Z,67.56
2023-04-16T00:06:22.739Z,63.55
2023-04-16T00:07:22.740Z,74.76
2023-04-16T00:08:22.710Z,70.46
2023-04-16T00:09:22.703Z,67.46
2023-04-16T00:10:22.713Z,54.95
2023-04-16T00:11:22.746Z,60.13
2023-04-16T00:12:22.670Z,61.97
2023-04-16T00:13:22.742Z,60.13
2023-04-16T00:14:22.680Z,58.54
2023-04-16T00:15:22.652Z,68.51
2023-04-16T00:16:22.745Z,61.08
2023-04-16T00:17:22.669Z,75.26
2023-04-16T00:18:22.695Z,65.88
2023-04-16T00:19:22.616Z,69.07
2023-04-16T00:20:22.619Z,77.91
2023-04-16T00:21:22.623Z,74.67
2023-04-16T00:22:22.635Z,72.55
2023-04-16T00:23:22.591Z,83.49
2023-04-16T00:24:22.629Z,76.99
2023-04-16T00:25:22.616Z,80.98
2023-04-16T00:26:22.620Z,79.44
2023-04-16T00:27:22.632Z,79.17
2023-04-16T00:28:22.633Z,77.20
2023-04-16T00:29:22.663Z,82.39
2023-04-16T00:30:22.698Z,74.33
2023-04-16T00:31:22.808Z,70.78
2023-04-16T00:32:22.773Z,76.88
2023-04-16T00:33:22.781Z,72.77
2023-04-16T00:34:22.826Z,73.68
2023-04-16T00:35:22.824Z,79.71
2023-04-16T00:36:22.885Z,71.56
2023-04-16T00:37:22.928Z,74.13
2023-04-16T00:38:22.906Z,67.62
2023-04-16T00:39:22.933Z,71.87
2023-04-16T00:40:22.966Z,78.30
2023-04-16T00:41:23.063Z,72.49
2023-04-16T00:42:23.036Z,66.99
2023-04-16T00:43:23.095Z,66.56
2023-04-16T00:44:23.089Z,58.83
2023-04-16T00:45:23.144Z,62.14
2023-04-16T00:46:23.196Z,59.39
2023-04-16T00:47:23.221Z,54.96
2023-04-16T00:48:23.216Z,65.41
2023-04-16T00:49:23.284Z,54.75
2023-04-16T00:50:24.107Z,55.59
2023-04-16T00:51:23.295Z,57.05
2023-04-16T00:52:23.343Z,60.39
2023-04-16T00:53:23.332Z,67.55
2023-04-16T00:54:23.377Z,67.72
2023-04-16T00:55:23.426Z,73.73
2023-04-16T00:56:23.456Z,65.74
2023-04-16T00:57:23.473Z,61.56
2023-04-16T00:58:23.555Z,59.23
2023-04-16T00:59:23.505Z,59.35
2023-04-16T01:00:23.565Z,58.64
2023-04-16T01:01:23.678Z,63.15
2023-04-16T01:02:23.840Z,67.21
2023-04-16T01:03:23.876Z,56.07
2023-04-16T01:04:23.838Z,70.13
2023-04-16T01:05:23.808Z,68.20
2023-04-16T01:06:23.847Z,69.15
2023-04-16T01:07:23.930Z,69.93
2023-04-16T01:08:23.918Z,71.79
2023-04-16T01:09:23.987Z,73.47
2023-04-16T01:10:24.034Z,73.86
2023-04-16T01:11:24.051Z,69.55
2023-04-16T01:12:24.112Z,73.13
2023-04-16T01:13:24.169Z,67.97
2023-04-16T01:14:24.229Z,71.82
2023-04-16T01:15:24.233Z,74.07
2023-04-16T01:16:24.430Z,72.08
2023-04-16T01:17:24.338Z,87.40
2023-04-16T01:18:24.406Z,88.63
2023-04-16T01:19:24.415Z,91.17
2023-04-16T01:20:24.461Z,96.83
2023-04-16T01:21:24.529Z,92.87
2023-04-16T01:22:24.544Z,99.77
2023-04-16T01:23:24.576Z,102.12
2023-04-16T01:24:24.648Z,107.96
2023-04-16T01:25:24.701Z,107.30
2023-04-16T01:26:24.697Z,103.96
2023-04-16T01:27:24.772Z,95.59
2023-04-16T01:28:24.815Z,88.06
2023-04-16T01:29:24.843Z,100.53
2023-04-16T01:30:24.845Z,100.88
2023-04-16T01:31:24.995Z,97.04
2023-04-16T01:32:25.082Z,94.15
2023-04-16T01:33:25.133Z,96.38
2023-04-16T01:34:25.058Z,101.11
2023-04-16T01:35:25.145Z,104.90
2023-04-16T01:36:25.143Z,88.60
2023-04-16T01:37:25.290Z,93.73
2023-04-16T01:38:25.260Z,91.38
2023-04-16T01:39:25.267Z,99.79
2023-04-16T01:40:25.326Z,96.45
2023-04-16T01:41:25.374Z,87.53
2023-04-16T01:42:25.449Z,85.30
2023-04-16T01:43:25.466Z,91.25
2023-04-16T01:44:25.626Z,90.63
2023-04-16T01:45:25.535Z,85.38
2023-04-16T01:46:25.630Z,89.03
2023-04-16T01:47:25.631Z,89.02
2023-04-16T01:48:25.748Z,87.24
2023-04-16T01:49:25.744Z,86.94
2023-04-16T01:50:25.801Z,76.44
2023-04-16T01:51:26.098Z,81.16
2023-04-16T01:52:25.879Z,75.37
2023-04-16T01:53:25.899Z,72.42
2023-04-16T01:54:26.012Z,70.51
2023-04-16T01:55:26.011Z,70.96
2023-04-16T01:56:26.105Z,66.30
2023-04-16T01:57:26.111Z,67.49
2023-04-16T01:58:26.152Z,74.88
2023-04-16T01:59:26.217Z,75.14
2023-04-16T02:00:26.278Z,82.62
2023-04-16T02:01:26.472Z,76.66
2023-04-16T02:02:26.516Z,74.19
2023-04-16T02:03:26.663Z,77.77
2023-04-16T02:04:26.450Z,72.26
2023-04-16T02:05:26.496Z,69.43
2023-04-16T02:06:26.581Z,71.50
2023-04-16T02:07:26.623Z,62.05
2023-04-16T02:08:26.641Z,62.53
2023-04-16T02:09:26.737Z,57.45
2023-04-16T02:10:26.813Z,57.54
2023-04-16T02:11:26.852Z,65.53
2023-04-16T02:12:26.945Z,61.62
2023-04-16T02:13:26.963Z,62.15
2023-04-16T02:14:27.039Z,73.21
2023-04-16T02:15:27.122Z,73.01
2023-04-16T02:16:27.150Z,75.40
2023-04-16T02:17:27.204Z,81.78
2023-04-16T02:18:27.191Z,84.94
2023-04-16T02:19:27.273Z,89.11
2023-04-16T02:20:27.432Z,85.11
2023-04-16T02:21:27.385Z,94.05
2023-04-16T02:22:27.503Z,80.69
2023-04-16T02:23:27.506Z,84.90
2023-04-16T02:24:27.617Z,80.43
2023-04-16T02:25:27.630Z,87.63
2023-04-16T02:26:27.673Z,76.83
2023-04-16T02:27:27.736Z,75.24
2023-04-16T02:28:27.791Z,70.94
2023-04-16T02:29:27.861Z,79.06
2023-04-16T02:30:27.908Z,70.50
2023-04-16T02:31:28.086Z,77.63
2023-04-16T02:32:28.148Z,69.69
2023-04-16T02:33:28.083Z,68.20
2023-04-16T02:34:28.196Z,74.88
2023-04-16T02:35:28.183Z,74.72
2023-04-16T02:36:28.256Z,63.45
2023-04-16T02:37:28.313Z,60.29
2023-04-16T02:38:28.355Z,65.10
2023-04-16T02:39:28.433Z,68.21
2023-04-16T02:40:28.478Z,62.37
2023-04-16T02:41:28.615Z,53.90
2023-04-16T02:42:28.629Z,49.20
2023-04-16T02:43:28.655Z,56.07
2023-04-16T02:44:28.727Z,49.65
2023-04-16T02:45:28.852Z,45.04
2023-04-16T02:46:28.977Z,40.51
2023-04-16T02:47:31.601Z,33.73
2023-04-16T02:48:28.899Z,31.67
2023-04-16T02:49:28.922Z,37.94
2023-04-16T02:50:28.916Z,38.92
2023-04-16T02:51:28.923Z,41.46
2023-04-16T02:52:28.937Z,41.54
2023-04-16T02:53:28.927Z,52.72
2023-04-16T02:54:28.936Z,52.88
2023-04-16T02:55:28.838Z,54.23
2023-04-16T02:56:28.850Z,57.88
2023-04-16T02:57:28.996Z,63.93
2023-04-16T02:58:28.877Z,58.73
2023-04-16T02:59:28.878Z,65.65
2023-04-16T03:00:28.814Z,66.17
2023-04-16T03:01:28.847Z,61.18
2023-04-16T03:02:28.906Z,60.47
2023-04-16T03:03:28.882Z,69.09
2023-04-16T03:04:28.906Z,61.19
2023-04-16T03:05:28.803Z,70.82
2023-04-16T03:06:28.803Z,70.93
2023-04-16T03:07:28.759Z,71.31
2023-04-16T03:08:28.772Z,74.85
2023-04-16T03:09:28.799Z,72.32
2023-04-16T03:10:28.735Z,84.42
2023-04-16T03:11:28.758Z,70.03
2023-04-16T03:12:28.760Z,71.88
2023-04-16T03:13:28.765Z,71.57
2023-04-16T03:14:28.722Z,71.17
2023-04-16T03:15:28.863Z,71.19
2023-04-16T03:16:28.720Z,72.86
2023-04-16T03:17:28.785Z,76.28
2023-04-16T03:18:28.794Z,82.36
2023-04-16T03:19:28.655Z,83.37
2023-04-16T03:20:28.702Z,75.04
2023-04-16T03:21:28.694Z,73.54
2023-04-16T03:22:28.653Z,71.00
2023-04-16T03:23:28.668Z,75.82
2023-04-16T03:24:28.673Z,87.28
2023-04-16T03:25:28.638Z,81.64
2023-04-16T03:26:28.762Z,96.07
2023-04-16T03:27:28.766Z,86.72
2023-04-16T03:28:28.829Z,88.48
2023-04-16T03:29:28.865Z,96.88
2023-04-16T03:30:28.927Z,100.35
2023-04-16T03:31:29.016Z,105.44
2023-04-16T03:32:29.124Z,98.64
2023-04-16T03:33:29.104Z,95.57
2023-04-16T03:34:29.158Z,104.05
2023-04-16T03:35:29.161Z,106.14
2023-04-16T03:36:29.261Z,116.75
2023-04-16T03:37:29.284Z,113.61
2023-04-16T03:38:29.392Z,113.69
2023-04-16T03:39:29.408Z,117.47
2023-04-16T03:40:29.460Z,120.10
2023-04-16T03:41:29.500Z,115.47
2023-04-16T03:42:29.574Z,119.65
2023-04-16T03:43:29.634Z,114.01
2023-04-16T03:44:29.686Z,112.52
2023-04-16T03:45:29.743Z,98.54
2023-04-16T03:46:29.852Z,97.69
2023-04-16T03:47:29.831Z,96.40
2023-04-16T03:48:29.885Z,101.78
2023-04-16T03:49:29.975Z,101.35
2023-04-16T03:50:29.998Z,95.00
2023-04-16T03:51:30.070Z,106.43
2023-04-16T03:52:30.191Z,104.10
2023-04-16T03:53:30.216Z,106.01
2023-04-16T03:54:30.273Z,110.20
2023-04-16T03:55:30.322Z,109.62
2023-04-16T03:56:30.388Z,111.71
2023-04-16T03:57:30.421Z,119.57
2023-04-16T03:58:30.505Z,118.87
2023-04-16T03:59:30.533Z,115.14
2023-04-16T04:00:31.064Z,130.26
2023-04-16T04:01:30.678Z,126.60
2023-04-16T04:02:30.846Z,133.82
2023-04-16T04:03:30.976Z,129.43
2023-04-16T04:04:30.985Z,132.78
2023-04-16T04:05:30.870Z,137.24
2023-04-16T04:06:30.921Z,131.76
2023-04-16T04:07:30.970Z,140.20
2023-04-16T04:08:31.019Z,140.41
2023-04-16T04:09:31.063Z,134.81
2023-04-16T04:10:31.153Z,134.15
2023-04-16T04:11:31.165Z,130.37
2023-04-16T04:12:31.213Z,133.30
2023-04-16T04:13:31.250Z,135.38
2023-04-16T04:14:31.302Z,129.56
2023-04-16T04:15:31.330Z,129.49
2023-04-16T04:16:31.419Z,133.67
2023-04-16T04:17:31.479Z,132.15
2023-04-16T04:18:31.457Z,134.43
2023-04-16T04:19:31.474Z,141.13
2023-04-16T04:20:31.497Z,147.60
2023-04-16T04:21:31.578Z,147.84
2023-04-16T04:22:31.640Z,150.37
2023-04-16T04:23:31.705Z,151.60
2023-04-16T04:24:31.837Z,157.78
2023-04-16T04:25:31.822Z,155.91
2023-04-16T04:26:31.923Z,153.86
2023-04-16T04:27:31.924Z,158.63
2023-04-16T04:28:31.933Z,156.98
2023-04-16T04:29:31.984Z,161.69
2023-04-16T04:30:32.070Z,152.22
2023-04-16T04:31:32.167Z,146.98
2023-04-16T04:32:32.189Z,140.88
2023-04-16T04:33:32.204Z,155.31
2023-04-16T04:34:32.278Z,162.25
2023-04-16T04:35:32.595Z,156.43
2023-04-16T04:36:32.396Z,157.45
2023-04-16T04:37:32.512Z,161.42
2023-04-16T04:38:32.551Z,156.35
2023-04-16T04:39:32.565Z,154.02
2023-04-16T04:40:32.657Z,153.64
2023-04-16T04:41:32.717Z,147.83
2023-04-16T04:42:32.760Z,149.06
2023-04-16T04:43:32.866Z,146.51
2023-04-16T04:44:32.861Z,144.95
2023-04-16T04:45:32.987Z,144.48
2023-04-16T04:46:33.020Z,141.30
2023-04-16T04:47:33.043Z,140.18
2023-04-16T04:48:33.159Z,140.75
2023-04-16T04:49:33.212Z,141.17
2023-04-16T04:50:33.268Z,138.85
2023-04-16T04:51:33.322Z,144.33
2023-04-16T04:52:33.324Z,137.67
2023-04-16T04:53:33.381Z,129.30
2023-04-16T04:54:33.427Z,140.45
2023-04-16T04:55:33.544Z,132.30
2023-04-16T04:56:33.555Z,121.03
2023-04-16T04:57:33.622Z,114.19
2023-04-16T04:58:33.682Z,120.98
2023-04-16T04:59:33.717Z,119.77
2023-04-16T05:00:33.810Z,122.63
2023-04-16T05:01:33.909Z,121.02
2023-04-16T05:02:33.984Z,126.60
2023-04-16T05:03:34.046Z,127.75
2023-04-16T05:04:34.058Z,117.35
2023-04-16T05:05:34.079Z,117.00
2023-04-16T05:06:34.148Z,128.33
2023-04-16T05:07:34.264Z,131.48
2023-04-16T05:08:35.073Z,133.38
2023-04-16T05:09:34.324Z,128.73
2023-04-16T05:10:34.437Z,125.02
2023-04-16T05:11:34.489Z,133.95
2023-04-16T05:12:34.538Z,130.22
2023-04-16T05:13:35.105Z,128.40
2023-04-16T05:14:34.647Z,141.05
2023-04-16T05:15:34.719Z,129.75
2023-04-16T05:16:34.826Z,126.73
2023-04-16T05:17:34.841Z,128.80
2023-04-16T05:18:34.853Z,132.79
2023-04-16T05:19:34.945Z,133.20
2023-04-16T05:20:35.006Z,131.87
2023-04-16T05:21:35.077Z,135.31
2023-04-16T05:22:35.117Z,133.04
2023-04-16T05:23:35.241Z,137.31
2023-04-16T05:24:35.229Z,134.67
2023-04-16T05:25:35.286Z,124.87
2023-04-16T05:26:35.390Z,133.29
2023-04-16T05:27:35.448Z,123.63
2023-04-16T05:28:35.459Z,124.41
2023-04-16T05:29:36.083Z,122.10
2023-04-16T05:30:35.600Z,115.71
2023-04-16T05:31:35.647Z,113.40
2023-04-16T05:32:36.571Z,114.40
2023-04-16T05:33:35.783Z,114.20
2023-04-16T05:34:35.806Z,115.60
2023-04-16T05:35:35.867Z,119.69
2023-04-16T05:36:35.990Z,122.95
2023-04-16T05:37:35.978Z,106.32
2023-04-16T05:38:36.091Z,102.67
2023-04-16T05:39:36.124Z,103.68
2023-04-16T05:40:36.212Z,116.80
2023-04-16T05:41:36.247Z,113.75
2023-04-16T05:42:36.321Z,113.23
2023-04-16T05:43:36.386Z,116.29
2023-04-16T05:44:36.446Z,120.08
2023-04-16T05:45:36.487Z,123.52
2023-04-16T05:46:36.591Z,121.27
2023-04-16T05:47:36.594Z,114.94
2023-04-16T05:48:36.667Z,121.11
2023-04-16T05:49:36.716Z,122.86
2023-04-16T05:50:36.792Z,116.26
2023-04-16T05:51:36.819Z,123.20
2023-04-16T05:52:36.899Z,119.16
2023-04-16T05:53:36.946Z,109.93
2023-04-16T05:54:37.020Z,111.19
2023-04-16T05:55:37.102Z,116.99
2023-04-16T05:56:37.141Z,119.07
2023-04-16T05:57:37.232Z,121.47
2023-04-16T05:58:37.278Z,118.71
2023-04-16T05:59:37.374Z,116.99
2023-04-16T06:00:37.421Z,122.79
2023-04-16T06:01:37.437Z,124.93
2023-04-16T06:02:37.693Z,120.01
2023-04-16T06:03:37.747Z,123.40
2023-04-16T06:04:37.629Z,122.60
2023-04-16T06:05:37.726Z,125.45
2023-04-16T06:06:37.758Z,126.73
2023-04-16T06:07:37.878Z,124.02
2023-04-16T06:08:37.891Z,115.70
2023-04-16T06:09:37.953Z,121.25
2023-04-16T06:10:37.944Z,120.91
2023-04-16T06:11:38.006Z,116.49
2023-04-16T06:12:38.051Z,117.41
2023-04-16T06:13:38.120Z,125.44
2023-04-16T06:14:38.164Z,123.01
2023-04-16T06:15:38.292Z,123.00
2023-04-16T06:16:38.222Z,116.26
2023-04-16T06:17:38.400Z,121.64
2023-04-16T06:18:38.356Z,125.30
2023-04-16T06:19:38.365Z,129.62
2023-04-16T06:20:38.432Z,134.53
2023-04-16T06:21:38.492Z,139.34
2023-04-16T06:22:38.525Z,135.23
2023-04-16T06:23:38.599Z,138.80
2023-04-16T06:24:38.602Z,147.45
2023-04-16T06:25:38.673Z,142.73
2023-04-16T06:26:38.717Z,143.72
2023-04-16T06:27:38.699Z,137.30
2023-04-16T06:28:38.779Z,136.70
2023-04-16T06:29:41.396Z,143.27
2023-04-16T06:30:38.817Z,146.29
2023-04-16T06:31:38.819Z,143.42
2023-04-16T06:32:38.869Z,144.81
2023-04-16T06:33:38.768Z,140.69
2023-04-16T06:34:38.777Z,138.05
2023-04-16T06:35:38.776Z,138.41
2023-04-16T06:36:38.758Z,135.74
2023-04-16T06:37:38.804Z,140.06
2023-04-16T06:38:38.744Z,138.75
2023-04-16T06:39:38.746Z,144.46
2023-04-16T06:40:38.786Z,144.00
2023-04-16T06:41:38.754Z,160.18
2023-04-16T06:42:38.695Z,157.71
2023-04-16T06:43:38.736Z,152.23
2023-04-16T06:44:38.695Z,167.77
2023-04-16T06:45:38.683Z,172.70
2023-04-16T06:46:38.710Z,168.03
2023-04-16T06:47:38.731Z,167.62
2023-04-16T06:48:38.716Z,168.10
2023-04-16T06:49:38.659Z,174.54
2023-04-16T06:50:38.687Z,165.80
2023-04-16T06:51:38.661Z,171.03
2023-04-16T06:52:38.630Z,175.35
2023-04-16T06:53:38.677Z,166.25
2023-04-16T06:54:38.658Z,160.91
2023-04-16T06:55:38.607Z,159.36
2023-04-16T06:56:38.618Z,167.88
2023-04-16T06:57:38.589Z,169.74
2023-04-16T06:58:38.607Z,166.41
2023-04-16T06:59:38.584Z,159.53
2023-04-16T07:00:38.613Z,157.72
2023-04-16T07:01:38.615Z,170.65
2023-04-16T07:02:38.698Z,166.66
2023-04-16T07:03:38.852Z,167.44
2023-04-16T07:04:38.557Z,178.89
2023-04-16T07:05:38.667Z,171.51
2023-04-16T07:06:38.550Z,181.86
2023-04-16T07:07:38.548Z,183.07
2023-04-16T07:08:38.696Z,179.91
2023-04-16T07:09:38.534Z,171.92
2023-04-16T07:10:38.548Z,171.19
2023-04-16T07:11:38.538Z,174.88
2023-04-16T07:12:38.526Z,182.70
2023-04-16T07:13:38.480Z,163.84
2023-04-16T07:14:38.464Z,177.60
2023-04-16T07:15:38.540Z,171.71
2023-04-16T07:16:38.509Z,170.19
2023-04-16T07:17:38.545Z,175.42
2023-04-16T07:18:38.450Z,159.00
2023-04-16T07:19:38.443Z,180.26
2023-04-16T07:20:38.414Z,170.42
2023-04-16T07:21:38.416Z,174.74
2023-04-16T07:22:38.417Z,166.90
2023-04-16T07:23:38.469Z,169.57
2023-04-16T07:24:38.401Z,166.16
2023-04-16T07:25:38.403Z,166.89
2023-04-16T07:26:38.389Z,164.65
2023-04-16T07:27:38.388Z,157.65
2023-04-16T07:28:38.417Z,165.13
2023-04-16T07:29:38.377Z,142.95
2023-04-16T07:30:38.397Z,154.39
2023-04-16T07:31:38.448Z,154.21
2023-04-16T07:32:38.464Z,151.96
2023-04-16T07:33:38.334Z,161.17
2023-04-16T07:34:38.338Z,160.20
2023-04-16T07:35:38.369Z,149.46
2023-04-16T07:36:38.355Z,147.42
2023-04-16T07:37:38.324Z,146.29
2023-04-16T07:38:38.335Z,141.80
2023-04-16T07:39:38.343Z,147.76
2023-04-16T07:40:38.292Z,137.98
2023-04-16T07:41:38.298Z,120.85
2023-04-16T07:42:38.281Z,135.21
2023-04-16T07:43:38.310Z,141.03
2023-04-16T07:44:38.268Z,129.38
2023-04-16T07:45:38.285Z,126.89
2023-04-16T07:46:46.466Z,142.92
2023-04-16T07:47:39.237Z,139.96
2023-04-16T07:48:38.225Z,140.86
2023-04-16T07:49:38.229Z,126.28
2023-04-16T07:50:38.228Z,128.73
2023-04-16T07:51:38.241Z,137.36
2023-04-16T07:52:38.238Z,121.29
2023-04-16T07:53:38.225Z,130.90
2023-04-16T07:54:38.236Z,126.53
2023-04-16T07:55:38.159Z,126.11
2023-04-16T07:56:38.179Z,141.96
2023-04-16T07:57:38.205Z,157.42
2023-04-16T07:58:38.186Z,151.77
2023-04-16T07:59:38.165Z,147.17
2023-04-16T08:00:38.159Z,151.82
2023-04-16T08:01:38.180Z,161.99
2023-04-16T08:02:38.370Z,166.70
2023-04-16T08:03:38.330Z,161.16
2023-04-16T08:04:38.295Z,170.77
2023-04-16T08:05:38.212Z,153.06
2023-04-16T08:06:38.218Z,151.55
2023-04-16T08:07:38.270Z,145.69
2023-04-16T08:08:38.345Z,152.71
2023-04-16T08:09:38.380Z,159.54
2023-04-16T08:10:38.496Z,166.69
2023-04-16T08:11:38.539Z,156.89
2023-04-16T08:12:38.531Z,153.99
2023-04-16T08:13:38.563Z,154.14
2023-04-16T08:14:38.605Z,162.92
2023-04-16T08:15:38.704Z,172.55
2023-04-16T08:16:38.826Z,180.77
2023-04-16T08:17:38.851Z,193.06
2023-04-16T08:18:38.852Z,180.75
2023-04-16T08:19:38.922Z,187.76
2023-04-16T08:20:38.961Z,186.62
2023-04-16T08:21:39.064Z,195.28
2023-04-16T08:22:39.055Z,204.01
2023-04-16T08:23:39.138Z,203.49
2023-04-16T08:24:39.211Z,203.81
2023-04-16T08:25:39.262Z,198.14
2023-04-16T08:26:39.292Z,204.45
2023-04-16T08:27:39.371Z,202.34
2023-04-16T08:28:39.424Z,202.85
2023-04-16T08:29:39.489Z,197.95
2023-04-16T08:30:54.529Z,212.15
2023-04-16T08:31:39.700Z,212.33
2023-04-16T08:32:39.578Z,211.16
2023-04-16T08:33:39.535Z,205.16
2023-04-16T08:34:39.535Z,197.85
2023-04-16T08:35:39.545Z,206.41
2023-04-16T08:36:39.532Z,204.51
2023-04-16T08:37:39.516Z,208.12
2023-04-16T08:38:39.553Z,206.22
2023-04-16T08:39:39.518Z,212.82
2023-04-16T08:40:39.488Z,221.47
2023-04-16T08:41:39.472Z,217.50
2023-04-16T08:42:39.524Z,212.54
2023-04-16T08:43:39.478Z,207.50
2023-04-16T08:44:39.505Z,208.85
2023-04-16T08:45:39.436Z,198.12
2023-04-16T08:46:39.489Z,180.05
2023-04-16T08:47:39.482Z,183.68
2023-04-16T08:48:39.415Z,163.05
2023-04-16T08:49:39.427Z,166.24
2023-04-16T08:50:39.423Z,172.35
2023-04-16T08:51:39.388Z,175.33
2023-04-16T08:52:39.381Z,165.05
2023-04-16T08:53:39.461Z,147.12
2023-04-16T08:54:39.392Z,158.78
2023-04-16T08:55:39.357Z,157.19
2023-04-16T08:56:40.761Z,108.22
2023-04-16T08:57:39.362Z,126.40
2023-04-16T08:58:39.490Z,123.95
2023-04-16T08:59:39.330Z,109.81
2023-04-16T09:00:39.392Z,126.12
2023-04-16T09:01:39.405Z,109.09
2023-04-16T09:02:39.850Z,98.59
2023-04-16T09:03:39.559Z,111.13
2023-04-16T09:04:39.574Z,99.19
2023-04-16T09:05:39.540Z,114.28
2023-04-16T09:06:39.540Z,120.65
2023-04-16T09:07:39.748Z,117.74
2023-04-16T09:08:39.953Z,118.69
2023-04-16T09:09:39.761Z,121.81
2023-04-16T09:10:39.624Z,107.01
2023-04-16T09:11:39.611Z,94.03
2023-04-16T09:12:39.686Z,94.28
2023-04-16T09:13:39.794Z,108.32
2023-04-16T09:14:39.894Z,102.56
2023-04-16T09:15:39.913Z,102.85
2023-04-16T09:16:40.055Z,99.89
2023-04-16T09:17:39.972Z,89.33
2023-04-16T09:18:39.919Z,99.39
2023-04-16T09:19:39.925Z,85.67
2023-04-16T09:20:39.989Z,90.71
2023-04-16T09:21:39.894Z,94.62
2023-04-16T09:22:39.969Z,86.88
2023-04-16T09:23:40.099Z,67.50
2023-04-16T09:24:40.066Z,70.85
2023-04-16T09:25:40.084Z,112.03
2023-04-16T09:26:40.123Z,100.74
2023-04-16T09:27:40.133Z,116.63
2023-04-16T09:28:40.102Z,105.73
2023-04-16T09:29:40.205Z,106.58
2023-04-16T09:30:40.334Z,83.71
2023-04-16T09:31:40.397Z,72.25
2023-04-16T09:32:40.362Z,69.26
2023-04-16T09:33:40.339Z,59.36
2023-04-16T09:34:40.376Z,79.27
2023-04-16T09:35:40.372Z,80.29
2023-04-16T09:36:40.493Z,90.24
2023-04-16T09:37:40.580Z,95.67
2023-04-16T09:38:40.674Z,82.15
2023-04-16T09:39:40.786Z,91.53
2023-04-16T09:40:40.903Z,80.26
2023-04-16T09:41:40.933Z,75.98
2023-04-16T09:42:41.123Z,76.26
2023-04-16T09:43:41.179Z,59.65
2023-04-16T09:44:41.275Z,35.64
2023-04-16T09:45:41.346Z,30.75
2023-04-16T09:46:41.343Z,53.61
2023-04-16T09:47:41.502Z,54.94
2023-04-16T09:48:41.353Z,56.95
2023-04-16T09:49:41.365Z,72.80
2023-04-16T09:50:41.372Z,74.98
2023-04-16T09:51:41.343Z,86.52
2023-04-16T09:52:41.392Z,95.55
2023-04-16T09:53:41.324Z,81.35
2023-04-16T09:54:41.403Z,91.49
2023-04-16T09:55:41.453Z,81.79
2023-04-16T09:56:41.573Z,58.15
2023-04-16T09:57:41.621Z,67.75
2023-04-16T09:58:41.742Z,72.62
2023-04-16T09:59:41.776Z,76.36
2023-04-16T10:00:43.604Z,95.22
2023-04-16T10:01:42.021Z,62.83
2023-04-16T10:02:42.441Z,75.74
2023-04-16T10:03:42.242Z,67.30
2023-04-16T10:04:42.100Z,74.36
2023-04-16T10:05:42.122Z,84.20
2023-04-16T10:06:42.204Z,88.36
2023-04-16T10:07:42.243Z,90.51
2023-04-16T10:08:42.265Z,72.62
2023-04-16T10:09:42.354Z,69.23
2023-04-16T10:10:42.440Z,72.68
2023-04-16T10:11:42.465Z,93.37
2023-04-16T10:12:42.540Z,67.62
2023-04-16T10:13:42.605Z,73.77
2023-04-16T10:14:42.690Z,94.92
2023-04-16T10:15:42.714Z,103.43
2023-04-16T10:16:42.772Z,102.74
2023-04-16T10:17:42.844Z,137.92
2023-04-16T10:18:42.886Z,124.60
2023-04-16T10:19:42.935Z,108.12
2023-04-16T10:20:43.006Z,100.70
2023-04-16T10:21:43.067Z,109.43
2023-04-16T10:22:43.115Z,92.47
2023-04-16T10:23:43.162Z,97.31
2023-04-16T10:24:43.199Z,118.45
2023-04-16T10:25:43.317Z,104.60
2023-04-16T10:26:43.399Z,94.32
2023-04-16T10:27:43.414Z,92.12
2023-04-16T10:28:43.532Z,105.96
2023-04-16T10:29:43.490Z,96.77
2023-04-16T10:30:43.556Z,117.68
2023-04-16T10:31:43.723Z,118.68
2023-04-16T10:32:43.639Z,145.27
2023-04-16T10:33:43.652Z,145.13
2023-04-16T10:34:43.794Z,148.67
2023-04-16T10:35:43.716Z,144.49
2023-04-16T10:36:43.782Z,129.15
2023-04-16T10:37:43.858Z,131.46
2023-04-16T10:38:43.874Z,129.44
2023-04-16T10:39:43.897Z,133.71
2023-04-16T10:40:43.967Z,132.47
2023-04-16T10:41:43.975Z,161.09
2023-04-16T10:42:43.967Z,147.42
2023-04-16T10:43:44.058Z,134.16
2023-04-16T10:44:45.433Z,175.21
2023-04-16T10:45:44.150Z,154.84
2023-04-16T10:46:44.142Z,142.48
2023-04-16T10:47:44.298Z,133.33
2023-04-16T10:49:44.312Z,116.33
2023-04-16T10:50:44.536Z,115.89
2023-04-16T10:51:44.181Z,120.43
2023-04-16T10:52:44.185Z,114.36
2023-04-16T10:53:44.187Z,106.53
2023-04-16T10:54:44.178Z,125.36
2023-04-16T10:55:44.165Z,118.46
2023-04-16T10:56:44.175Z,153.43
2023-04-16T10:57:44.481Z,152.87
2023-04-16T10:58:44.122Z,150.24
2023-04-16T10:59:44.141Z,149.34
2023-04-16T11:00:44.140Z,141.55
2023-04-16T11:01:44.199Z,132.22
2023-04-16T11:02:44.384Z,127.67
2023-04-16T11:03:44.380Z,129.78
2023-04-16T11:04:44.216Z,139.17
2023-04-16T11:05:44.134Z,135.44
2023-04-16T11:06:44.081Z,145.56
2023-04-16T11:07:44.078Z,143.69
2023-04-16T11:08:54.038Z,154.09
2023-04-16T11:09:45.067Z,154.35
2023-04-16T11:10:44.067Z,138.97
2023-04-16T11:11:44.012Z,150.29
2023-04-16T11:12:44.068Z,161.01
2023-04-16T11:13:44.021Z,125.60
2023-04-16T11:14:44.038Z,128.56
2023-04-16T11:15:44.049Z,113.81
2023-04-16T11:16:44.001Z,120.60
2023-04-16T11:17:44.106Z,133.81
2023-04-16T11:18:51.287Z,134.60
2023-04-16T11:19:44.975Z,135.06
2023-04-16T11:20:43.956Z,137.71
2023-04-16T11:21:43.954Z,129.17
2023-04-16T11:22:43.966Z,127.43
2023-04-16T11:23:43.939Z,134.83
2023-04-16T11:24:43.952Z,166.18
2023-04-16T11:25:43.957Z,127.35
2023-04-16T11:26:43.897Z,100.85
2023-04-16T11:27:43.900Z,95.74
2023-04-16T11:28:43.920Z,84.88
2023-04-16T11:29:45.714Z,115.78
2023-04-16T11:30:43.989Z,108.32
2023-04-16T11:31:44.002Z,101.03
2023-04-16T11:32:43.915Z,70.25
2023-04-16T11:33:43.923Z,111.66
2023-04-16T11:34:43.851Z,110.39
2023-04-16T11:35:43.878Z,127.35
2023-04-16T11:36:43.889Z,115.15
2023-04-16T11:37:43.937Z,89.37
2023-04-16T11:38:43.838Z,94.27
2023-04-16T11:39:43.851Z,101.72
2023-04-16T11:40:43.864Z,110.54
2023-04-16T11:41:43.859Z,120.73
2023-04-16T11:42:43.929Z,82.67
2023-04-16T11:43:43.841Z,87.04
2023-04-16T11:44:43.876Z,105.18
2023-04-16T11:45:43.854Z,110.94
2023-04-16T11:46:43.833Z,117.23
2023-04-16T11:47:43.846Z,99.04
2023-04-16T11:48:43.890Z,76.90
2023-04-16T11:49:43.758Z,104.23
2023-04-16T11:50:43.764Z,108.89
2023-04-16T11:51:43.775Z,90.50
2023-04-16T11:52:43.778Z,84.29
2023-04-16T11:53:43.734Z,92.52
2023-04-16T11:54:43.739Z,116.50
2023-04-16T11:55:43.756Z,115.43
2023-04-16T11:56:43.762Z,115.75
2023-04-16T11:57:43.708Z,98.20
2023-04-16T11:58:43.700Z,86.89
2023-04-16T12:00:02.165Z,128.82
2023-04-16T12:00:44.703Z,114.86
2023-04-16T12:01:43.728Z,103.54
2023-04-16T12:02:43.861Z,91.34
2023-04-16T12:03:44.006Z,109.65
2023-04-16T12:04:43.773Z,120.32
2023-04-16T12:05:43.654Z,138.66
2023-04-16T12:06:43.661Z,130.55
2023-04-16T12:07:43.668Z,117.71
2023-04-16T12:08:43.633Z,116.04
2023-04-16T12:09:43.654Z,125.15
2023-04-16T12:10:43.638Z,136.47
2023-04-16T12:11:43.613Z,123.21
2023-04-16T12:12:43.616Z,132.93
2023-04-16T12:13:43.659Z,95.08
2023-04-16T12:14:43.674Z,114.66
2023-04-16T12:15:43.729Z,105.66
2023-04-16T12:16:43.815Z,116.64
2023-04-16T12:17:43.865Z,114.83
2023-04-16T12:18:43.852Z,131.33
2023-04-16T12:19:43.917Z,106.80
2023-04-16T12:20:44.032Z,144.09
2023-04-16T12:21:44.026Z,119.84
2023-04-16T12:22:44.032Z,100.87
2023-04-16T12:23:44.087Z,74.85
2023-04-16T12:24:44.155Z,63.18
2023-04-16T12:25:44.208Z,59.04
2023-04-16T12:26:44.218Z,41.74
2023-04-16T12:27:44.321Z,67.70
2023-04-16T12:28:44.995Z,56.81
2023-04-16T12:29:44.389Z,36.66
2023-04-16T12:30:44.476Z,47.90
2023-04-16T12:31:44.513Z,61.76
2023-04-16T12:32:44.582Z,47.93
2023-04-16T12:33:44.624Z,41.99
2023-04-16T12:34:48.774Z,45.27
2023-04-16T12:35:44.687Z,45.78
2023-04-16T12:36:44.669Z,46.77
2023-04-16T12:37:44.646Z,36.87
2023-04-16T12:38:44.650Z,30.83
2023-04-16T12:39:46.304Z,52.63